createdAt,value
2019-05-15T00:01:20.632Z,61.30
2019-05-15T00:03:49.261Z,61.78
2019-05-15T00:06:18.882Z,61.71
2019-05-15T00:08:47.894Z,62.63
2019-05-15T00:11:14.509Z,62.30
2019-05-15T00:13:41.301Z,63.43
2019-05-15T00:16:08.625Z,62.92
2019-05-15T00:18:35.780Z,62.79
2019-05-15T00:21:02.719Z,63.59
2019-05-15T00:23:29.712Z,62.64
2019-05-15T00:25:58.459Z,62.58
2019-05-15T00:28:27.825Z,63.12
2019-05-15T00:30:55.581Z,64.23
2019-05-15T00:33:22.455Z,61.86
2019-05-15T00:35:49.366Z,61.44
2019-05-15T00:38:18.443Z,61.38
2019-05-15T00:40:44.798Z,61.96
2019-05-15T00:43:11.804Z,62.01
2019-05-15T00:45:39.038Z,62.77
2019-05-15T00:48:06.029Z,62.23
2019-05-15T00:50:33.442Z,62.53
2019-05-15T00:53:00.595Z,63.03
2019-05-15T00:55:28.408Z,63.58
2019-05-15T00:57:55.879Z,64.08
2019-05-15T01:00:43.345Z,63.51
2019-05-15T01:03:11.703Z,64.37
2019-05-15T01:05:38.916Z,65.47
2019-05-15T01:08:08.235Z,65.32
2019-05-15T01:10:38.353Z,66.36
2019-05-15T01:13:04.480Z,65.47
2019-05-15T01:15:31.423Z,65.69
2019-05-15T01:17:58.473Z,65.51
2019-05-15T01:20:25.929Z,64.61
2019-05-15T01:22:53.281Z,65.48
2019-05-15T01:25:20.556Z,65.01
2019-05-15T01:27:49.014Z,65.41
2019-05-15T01:30:17.967Z,65.62
2019-05-15T01:32:45.387Z,65.22
2019-05-15T01:35:12.453Z,64.30
2019-05-15T01:37:39.493Z,64.28
2019-05-15T01:40:08.803Z,64.26
2019-05-15T01:42:38.658Z,65.15
2019-05-15T01:45:08.952Z,66.04
2019-05-15T01:47:38.569Z,66.30
2019-05-15T01:50:09.295Z,66.46
2019-05-15T01:52:38.685Z,66.91
2019-05-15T01:55:05.848Z,66.55
2019-05-15T01:57:33.550Z,66.68
2019-05-15T02:00:00.983Z,66.65
2019-05-15T02:02:28.366Z,66.43
2019-05-15T02:04:55.256Z,67.26
2019-05-15T02:07:22.742Z,66.09
2019-05-15T02:09:49.478Z,67.19
2019-05-15T02:12:18.967Z,68.43
2019-05-15T02:14:48.398Z,68.43
2019-05-15T02:17:15.132Z,68.09
2019-05-15T02:19:41.904Z,67.34
2019-05-15T02:22:08.761Z,68.20
2019-05-15T02:24:35.562Z,67.38
2019-05-15T02:27:02.956Z,67.14
2019-05-15T02:29:29.951Z,67.52
2019-05-15T02:31:59.284Z,68.29
2019-05-15T02:34:29.691Z,68.23
2019-05-15T02:36:54.800Z,67.97
2019-05-15T02:39:21.582Z,67.21
2019-05-15T02:41:49.366Z,67.17
2019-05-15T02:44:19.600Z,67.35
2019-05-15T02:46:45.447Z,67.72
2019-05-15T02:49:13.026Z,67.57
2019-05-15T02:51:40.247Z,67.29
2019-05-15T02:54:10.292Z,67.78
2019-05-15T02:56:39.245Z,67.18
2019-05-15T02:59:08.999Z,67.44
2019-05-15T03:01:34.343Z,67.31
2019-05-15T03:04:02.021Z,66.58
2019-05-15T03:06:30.041Z,66.34
2019-05-15T03:08:59.566Z,65.97
2019-05-15T03:11:29.258Z,67.04
2019-05-15T03:13:54.886Z,67.60
2019-05-15T03:16:21.625Z,67.30
2019-05-15T03:18:50.475Z,68.07
2019-05-15T03:21:18.749Z,68.96
2019-05-15T03:23:46.158Z,69.82
2019-05-15T03:26:12.996Z,68.75
2019-05-15T03:28:40.015Z,70.55
2019-05-15T03:31:26.571Z,69.80
2019-05-15T03:33:37.268Z,69.16
2019-05-15T03:36:04.408Z,69.76
2019-05-15T03:38:31.208Z,70.19
2019-05-15T03:40:59.602Z,69.69
2019-05-15T03:43:29.310Z,69.11
2019-05-15T03:45:55.809Z,68.40
2019-05-15T03:48:22.648Z,68.01
2019-05-15T03:50:49.753Z,67.89
2019-05-15T03:53:19.235Z,67.89
2019-05-15T03:55:48.756Z,67.46
2019-05-15T03:58:14.746Z,67.45
2019-05-15T04:00:41.637Z,67.36
2019-05-15T04:03:10.806Z,67.88
2019-05-15T04:05:38.894Z,67.57
2019-05-15T04:08:10.384Z,68.81
2019-05-15T04:10:35.450Z,69.50
2019-05-15T04:13:02.525Z,69.63
2019-05-15T04:15:30.274Z,69.69
2019-05-15T04:18:00.405Z,69.76
2019-05-15T04:20:29.455Z,69.49
2019-05-15T04:22:54.663Z,68.80
2019-05-15T04:25:23.952Z,69.00
2019-05-15T04:27:53.425Z,69.17
2019-05-15T04:30:20.177Z,69.40
2019-05-15T04:32:48.758Z,69.48
2019-05-15T04:35:15.942Z,69.19
2019-05-15T04:37:42.707Z,69.36
2019-05-15T04:40:10.216Z,68.99
2019-05-15T04:42:39.880Z,68.67
2019-05-15T04:45:10.050Z,68.82
2019-05-15T04:47:35.444Z,69.37
2019-05-15T04:50:08.616Z,68.45
2019-05-15T04:52:35.044Z,69.25
2019-05-15T04:55:04.037Z,69.24
2019-05-15T04:57:34.068Z,69.95
2019-05-15T04:59:59.965Z,69.88
2019-05-15T05:02:31.289Z,69.60
2019-05-15T05:04:58.630Z,69.48
2019-05-15T05:07:29.379Z,68.91
2019-05-15T05:09:59.519Z,68.31
2019-05-15T05:12:28.931Z,67.65
2019-05-15T05:14:55.391Z,67.78
2019-05-15T05:17:22.334Z,68.71
2019-05-15T05:19:51.351Z,67.88
2019-05-15T05:22:18.708Z,68.66
2019-05-15T05:24:47.808Z,67.85
2019-05-15T05:27:14.822Z,67.41
2019-05-15T05:29:41.899Z,67.97
2019-05-15T05:32:09.274Z,68.31
2019-05-15T05:34:36.107Z,68.25
2019-05-15T05:37:03.405Z,68.48
2019-05-15T05:39:30.258Z,68.81
2019-05-15T05:41:58.746Z,68.32
2019-05-15T05:44:25.968Z,67.37
2019-05-15T05:46:52.759Z,67.05
2019-05-15T05:49:19.625Z,66.45
2019-05-15T05:51:48.135Z,65.78
2019-05-15T05:54:15.077Z,65.41
2019-05-15T05:56:42.063Z,64.54
2019-05-15T05:59:09.575Z,64.83
2019-05-15T06:01:43.256Z,64.05
2019-05-15T06:04:07.745Z,63.61
2019-05-15T06:06:34.664Z,63.14
2019-05-15T06:09:01.697Z,62.89
2019-05-15T06:11:28.455Z,62.60
2019-05-15T06:13:55.212Z,61.93
2019-05-15T06:16:22.734Z,61.48
2019-05-15T06:18:49.470Z,60.74
2019-05-15T06:21:17.901Z,59.99
2019-05-15T06:23:48.541Z,59.41
2019-05-15T06:26:14.622Z,59.04
2019-05-15T06:28:41.394Z,58.81
2019-05-15T06:31:08.911Z,58.30
2019-05-15T06:33:38.200Z,57.72
2019-05-15T06:36:04.769Z,57.22
2019-05-15T06:38:31.899Z,56.33
2019-05-15T06:40:58.872Z,56.21
2019-05-15T06:43:28.098Z,55.84
2019-05-15T06:45:58.454Z,55.69
2019-05-15T06:48:25.848Z,55.39
2019-05-15T06:50:52.611Z,55.28
2019-05-15T06:53:19.764Z,54.66
2019-05-15T06:55:49.575Z,53.80
2019-05-15T06:58:19.169Z,54.24
2019-05-15T07:00:48.731Z,53.87
2019-05-15T07:03:24.059Z,53.73
2019-05-15T07:05:46.309Z,53.16
2019-05-15T07:08:13.543Z,52.85
2019-05-15T07:10:40.298Z,52.65
2019-05-15T07:13:08.874Z,52.58
2019-05-15T07:15:38.199Z,52.33
2019-05-15T07:18:04.675Z,51.60
2019-05-15T07:20:31.639Z,51.29
2019-05-15T07:22:58.706Z,51.03
2019-05-15T07:25:26.229Z,50.34
2019-05-15T07:27:53.115Z,49.03
2019-05-15T07:30:21.278Z,48.03
2019-05-15T07:32:48.824Z,49.24
2019-05-15T07:35:19.128Z,48.92
2019-05-15T07:37:47.864Z,48.34
2019-05-15T07:40:15.969Z,48.38
2019-05-15T07:42:42.951Z,48.12
2019-05-15T07:45:11.034Z,47.82
2019-05-15T07:47:38.809Z,47.06
2019-05-15T07:50:09.746Z,46.77
2019-05-15T07:52:39.593Z,46.55
2019-05-15T07:55:08.880Z,46.41
2019-05-15T07:57:39.368Z,44.78
2019-05-15T08:00:13.953Z,45.95
2019-05-15T08:02:41.219Z,45.71
2019-05-15T08:05:09.096Z,45.03
2019-05-15T08:07:38.857Z,44.19
2019-05-15T08:10:08.737Z,44.60
2019-05-15T08:12:38.916Z,44.02
2019-05-15T08:15:09.041Z,43.91
2019-05-15T08:17:56.023Z,43.57
2019-05-15T08:20:10.316Z,43.22
2019-05-15T08:22:38.339Z,42.52
2019-05-15T08:25:11.271Z,42.48
2019-05-15T08:27:38.255Z,41.88
2019-05-15T08:30:09.027Z,41.99
2019-05-15T08:32:38.693Z,41.62
2019-05-15T08:35:09.456Z,41.19
2019-05-15T08:37:38.454Z,41.03
2019-05-15T08:40:08.969Z,40.88
2019-05-15T08:42:41.703Z,40.17
2019-05-15T08:45:06.356Z,40.45
2019-05-15T08:47:35.126Z,39.77
2019-05-15T08:50:04.199Z,39.01
2019-05-15T08:52:31.686Z,39.25
2019-05-15T08:54:59.087Z,39.58
2019-05-15T08:57:28.833Z,39.30
2019-05-15T08:59:54.994Z,39.06
2019-05-15T09:02:22.107Z,38.76
2019-05-15T09:04:49.657Z,38.69
2019-05-15T09:07:18.080Z,38.51
2019-05-15T09:09:45.484Z,37.90
2019-05-15T09:12:15.073Z,37.30
2019-05-15T09:14:41.826Z,37.89
2019-05-15T09:17:09.003Z,38.20
2019-05-15T09:19:35.758Z,38.46
2019-05-15T09:22:02.502Z,38.52
2019-05-15T09:24:29.297Z,38.33
2019-05-15T09:26:56.154Z,38.22
2019-05-15T09:29:22.969Z,38.12
2019-05-15T09:31:50.016Z,37.76
2019-05-15T09:34:18.526Z,37.54
2019-05-15T09:36:48.410Z,37.00
2019-05-15T09:39:14.766Z,36.50
2019-05-15T09:41:41.512Z,36.17
2019-05-15T09:44:08.930Z,35.61
2019-05-15T09:46:38.129Z,35.62
2019-05-15T09:49:04.615Z,35.27
2019-05-15T09:51:31.373Z,35.30
2019-05-15T09:53:59.611Z,34.71
2019-05-15T09:56:29.093Z,34.35
2019-05-15T09:58:58.171Z,34.31
2019-05-15T10:01:28.346Z,34.48
2019-05-15T10:03:55.494Z,33.59
2019-05-15T10:06:22.474Z,34.61
2019-05-15T10:08:49.718Z,34.36
2019-05-15T10:11:19.701Z,34.18
2019-05-15T10:13:46.709Z,33.83
2019-05-15T10:16:13.509Z,32.65
2019-05-15T10:18:40.374Z,33.13
2019-05-15T10:21:08.997Z,33.13
2019-05-15T10:23:36.545Z,33.46
2019-05-15T10:26:04.378Z,33.23
2019-05-15T10:28:31.534Z,31.97
2019-05-15T10:31:00.069Z,33.77
2019-05-15T10:33:29.439Z,34.00
2019-05-15T10:35:58.873Z,33.68
2019-05-15T10:38:24.699Z,33.30
2019-05-15T10:41:03.787Z,31.81
2019-05-15T10:43:20.979Z,33.96
2019-05-15T10:45:50.017Z,34.11
2019-05-15T10:48:18.960Z,34.22
2019-05-15T10:50:46.357Z,33.92
2019-05-15T10:53:14.031Z,33.87
2019-05-15T10:55:40.878Z,33.91
2019-05-15T10:58:14.081Z,33.83
2019-05-15T11:00:36.565Z,33.65
2019-05-15T11:03:03.695Z,33.18
2019-05-15T11:05:44.643Z,32.77
2019-05-15T11:07:59.841Z,32.17
2019-05-15T11:10:29.009Z,31.74
2019-05-15T11:12:58.102Z,31.74
2019-05-15T11:15:25.369Z,32.13
2019-05-15T11:17:52.431Z,31.92
2019-05-15T11:20:19.517Z,31.66
2019-05-15T11:22:49.654Z,31.39
2019-05-15T11:25:15.954Z,30.89
2019-05-15T11:27:43.545Z,30.64
2019-05-15T11:30:11.358Z,30.36
2019-05-15T11:32:39.221Z,30.04
2019-05-15T11:35:07.466Z,30.03
2019-05-15T11:37:34.641Z,30.13
2019-05-15T11:40:01.599Z,29.56
2019-05-15T11:42:28.999Z,29.22
2019-05-15T11:44:58.323Z,28.72
2019-05-15T11:47:27.767Z,28.44
2019-05-15T11:49:54.330Z,28.89
2019-05-15T11:52:21.615Z,28.90
2019-05-15T11:54:49.372Z,28.32
2019-05-15T11:57:18.946Z,28.12
2019-05-15T11:59:46.408Z,27.70
2019-05-15T12:02:14.612Z,27.49
2019-05-15T12:04:41.469Z,27.21
2019-05-15T12:07:10.679Z,27.62
2019-05-15T12:09:38.798Z,27.53
2019-05-15T12:12:08.685Z,27.37
2019-05-15T12:14:34.868Z,26.40
2019-05-15T12:17:10.631Z,26.86
2019-05-15T12:19:32.112Z,26.97
2019-05-15T12:21:59.927Z,27.61
2019-05-15T12:26:55.911Z,26.57
2019-05-15T12:29:22.705Z,26.71
2019-05-15T12:31:49.780Z,26.47
2019-05-15T12:34:18.869Z,26.99
2019-05-15T12:39:20.061Z,27.47
2019-05-15T13:01:35.926Z,26.25
2019-05-15T13:04:02.898Z,25.28
2019-05-15T13:06:29.750Z,25.19
2019-05-15T13:08:59.249Z,25.10
2019-05-15T13:11:25.877Z,24.58
2019-05-15T13:13:52.673Z,24.78
2019-05-15T13:16:19.415Z,24.82
2019-05-15T13:18:48.092Z,25.52
2019-05-15T13:21:15.049Z,25.57
2019-05-15T13:23:42.086Z,25.13
2019-05-15T13:26:23.054Z,24.76
2019-05-15T13:28:38.228Z,24.26
2019-05-15T13:31:05.515Z,22.92
2019-05-15T13:33:32.444Z,24.18
2019-05-15T13:35:59.786Z,24.18
2019-05-15T13:38:28.717Z,24.40
2019-05-15T13:40:55.776Z,23.78
2019-05-15T13:43:22.679Z,23.58
2019-05-15T13:45:49.708Z,23.02
2019-05-15T13:48:19.747Z,22.90
2019-05-15T13:50:45.243Z,22.98
2019-05-15T13:53:12.099Z,22.83
2019-05-15T13:55:42.296Z,23.54
2019-05-15T13:58:08.666Z,24.96
2019-05-15T14:00:38.906Z,25.85
2019-05-15T14:03:05.730Z,25.56
2019-05-15T14:05:32.571Z,25.28
2019-05-15T14:07:59.492Z,26.30
2019-05-15T14:10:28.466Z,25.96
2019-05-15T14:12:55.113Z,25.91
2019-05-15T14:15:22.108Z,25.24
2019-05-15T14:17:48.903Z,24.48
2019-05-15T14:20:16.489Z,24.48
2019-05-15T14:22:43.592Z,24.53
2019-05-15T14:25:11.357Z,24.63
2019-05-15T14:27:39.712Z,25.06
2019-05-15T14:30:09.081Z,25.40
2019-05-15T14:32:53.498Z,25.40
2019-05-15T14:35:09.113Z,24.79
2019-05-15T14:37:36.527Z,24.39
2019-05-15T14:40:08.743Z,24.32
2019-05-15T14:42:35.664Z,24.71
2019-05-15T14:45:08.511Z,25.34
2019-05-15T14:47:35.130Z,25.92
2019-05-15T14:50:03.471Z,26.36
2019-05-15T14:52:30.780Z,26.31
2019-05-15T14:54:59.048Z,26.03
2019-05-15T14:57:27.086Z,25.37
2019-05-15T14:59:57.997Z,25.20
2019-05-15T15:02:25.005Z,24.88
2019-05-15T15:04:51.762Z,24.95
2019-05-15T15:07:19.034Z,25.46
2019-05-15T15:09:47.781Z,25.46
2019-05-15T15:12:14.650Z,25.45
2019-05-15T15:14:41.421Z,25.43
2019-05-15T15:17:08.859Z,25.89
2019-05-15T15:19:38.703Z,26.29
2019-05-15T15:22:04.761Z,26.03
2019-05-15T15:24:31.657Z,26.02
2019-05-15T15:27:01.242Z,25.63
2019-05-15T15:29:28.376Z,26.00
2019-05-15T15:31:55.271Z,26.23
2019-05-15T15:34:22.149Z,26.37
2019-05-15T15:36:49.113Z,26.51
2019-05-15T15:39:16.627Z,26.75
2019-05-15T15:41:45.309Z,26.76
2019-05-15T15:44:12.077Z,27.10
2019-05-15T15:46:39.817Z,27.45
2019-05-15T15:49:08.779Z,27.55
2019-05-15T15:51:38.013Z,27.48
2019-05-15T15:54:04.879Z,27.65
2019-05-15T15:56:31.755Z,28.02
2019-05-15T15:58:59.497Z,28.01
2019-05-15T16:01:28.534Z,28.22
2019-05-15T16:03:55.482Z,28.18
2019-05-15T16:06:23.726Z,28.33
2019-05-15T16:08:55.095Z,28.53
2019-05-15T16:11:19.587Z,28.74
2019-05-15T16:13:49.045Z,28.86
2019-05-15T16:16:15.129Z,28.97
2019-05-15T16:18:42.386Z,28.95
2019-05-15T16:21:09.267Z,29.01
2019-05-15T16:23:38.515Z,29.16
2019-05-15T16:26:05.799Z,29.27
2019-05-15T16:28:32.565Z,29.34
2019-05-15T16:31:01.997Z,29.63
2019-05-15T16:33:29.049Z,29.81
2019-05-15T16:35:58.066Z,30.25
2019-05-15T16:38:25.657Z,30.14
2019-05-15T16:40:54.348Z,30.03
2019-05-15T16:43:21.225Z,29.99
2019-05-15T16:45:51.941Z,30.04
2019-05-15T16:48:18.724Z,29.92
2019-05-15T16:50:48.556Z,30.07
2019-05-15T16:53:15.342Z,30.26
2019-05-15T16:55:42.178Z,30.41
2019-05-15T16:58:09.453Z,30.51
2019-05-15T17:00:38.443Z,30.65
2019-05-15T17:03:13.789Z,30.89
2019-05-15T17:05:34.093Z,31.03
2019-05-15T17:08:01.013Z,31.05
2019-05-15T17:10:28.372Z,31.23
2019-05-15T17:12:55.142Z,31.21
2019-05-15T17:15:22.107Z,31.11
2019-05-15T17:17:49.599Z,31.21
2019-05-15T17:20:18.131Z,31.38
2019-05-15T17:22:45.167Z,31.47
2019-05-15T17:25:12.889Z,31.68
2019-05-15T17:27:39.689Z,31.58
2019-05-15T17:30:09.274Z,31.71
2019-05-15T17:32:38.924Z,31.82
2019-05-15T17:35:06.214Z,31.81
2019-05-15T17:37:35.226Z,31.83
2019-05-15T17:40:02.759Z,31.82
2019-05-15T17:42:29.844Z,32.02
2019-05-15T17:44:57.932Z,32.07
2019-05-15T17:47:25.030Z,32.07
2019-05-15T17:49:52.039Z,32.20
2019-05-15T17:52:19.555Z,32.29
2019-05-15T17:54:49.132Z,32.08
2019-05-15T17:57:15.959Z,32.02
2019-05-15T17:59:42.699Z,31.98
2019-05-15T18:02:09.804Z,31.93
2019-05-15T18:04:38.771Z,31.94
2019-05-15T18:07:05.795Z,32.00
2019-05-15T18:09:33.691Z,32.08
2019-05-15T18:12:00.832Z,32.21
2019-05-15T18:14:28.147Z,32.19
2019-05-15T18:16:55.694Z,32.14
2019-05-15T18:19:22.548Z,32.35
2019-05-15T18:21:49.967Z,32.29
2019-05-15T18:24:18.495Z,32.23
2019-05-15T18:26:45.619Z,32.23
2019-05-15T18:29:12.760Z,32.11
2019-05-15T18:31:40.380Z,32.26
2019-05-15T18:34:08.305Z,32.32
2019-05-15T18:36:35.743Z,32.21
2019-05-15T18:39:05.444Z,31.99
2019-05-15T18:41:33.465Z,32.02
2019-05-15T18:44:00.271Z,32.06
2019-05-15T18:46:28.854Z,32.23
2019-05-15T18:48:57.906Z,32.18
2019-05-15T18:51:27.868Z,32.14
2019-05-15T18:53:54.099Z,32.23
2019-05-15T18:56:20.822Z,32.11
2019-05-15T18:58:48.524Z,32.17
2019-05-15T19:01:17.687Z,32.17
2019-05-15T19:03:44.723Z,32.12
2019-05-15T19:06:11.989Z,32.12
2019-05-15T19:08:39.097Z,32.13
2019-05-15T19:11:06.042Z,32.22
2019-05-15T19:13:33.441Z,32.01
2019-05-15T19:16:03.642Z,32.04
2019-05-15T19:18:30.505Z,32.24
2019-05-15T19:20:58.629Z,32.27
2019-05-15T19:23:26.266Z,32.20
2019-05-15T19:25:53.154Z,32.01
2019-05-15T19:28:20.348Z,32.04
2019-05-15T19:30:48.063Z,31.95
2019-05-15T19:33:15.516Z,31.98
2019-05-15T19:35:42.862Z,32.26
2019-05-15T19:38:10.515Z,32.29
2019-05-15T19:40:38.980Z,32.37
2019-05-15T19:43:09.362Z,32.49
2019-05-15T19:45:38.574Z,32.63
2019-05-15T19:48:05.415Z,32.64
2019-05-15T19:50:32.388Z,32.71
2019-05-15T19:52:59.402Z,32.80
2019-05-15T19:55:26.661Z,32.80
2019-05-15T19:57:53.569Z,32.76
2019-05-15T20:00:20.841Z,32.65
2019-05-15T20:02:48.578Z,32.60
2019-05-15T20:05:18.166Z,32.75
2019-05-15T20:07:44.691Z,32.95
2019-05-15T20:10:13.206Z,33.06
2019-05-15T20:12:40.207Z,32.97
2019-05-15T20:15:09.114Z,32.99
2019-05-15T20:17:38.710Z,32.95
2019-05-15T20:20:08.785Z,33.18
2019-05-15T20:22:37.477Z,33.18
2019-05-15T20:25:05.233Z,33.35
2019-05-15T20:27:35.557Z,33.49
2019-05-15T20:30:08.772Z,33.44
2019-05-15T20:32:38.712Z,33.53
2019-05-15T20:35:08.387Z,33.37
2019-05-15T20:37:38.640Z,33.38
2019-05-15T20:40:08.835Z,33.67
2019-05-15T20:42:37.876Z,33.67
2019-05-15T20:45:09.263Z,33.96
2019-05-15T20:47:38.564Z,33.89
2019-05-15T20:50:08.307Z,34.03
2019-05-15T20:52:34.804Z,34.09
2019-05-15T20:55:04.218Z,34.31
2019-05-15T20:57:31.291Z,34.61
2019-05-15T20:59:58.689Z,34.80
2019-05-15T21:02:25.726Z,35.00
2019-05-15T21:04:52.522Z,35.13
2019-05-15T21:07:33.498Z,35.22
2019-05-15T21:09:48.472Z,35.32
2019-05-15T21:12:17.768Z,35.64
2019-05-15T21:14:44.495Z,35.99
2019-05-15T21:17:11.571Z,35.84
2019-05-15T21:19:38.648Z,36.13
2019-05-15T21:22:08.391Z,36.12
2019-05-15T21:24:35.249Z,36.50
2019-05-15T21:27:02.290Z,36.51
2019-05-15T21:29:29.474Z,36.73
2019-05-15T21:31:58.058Z,36.96
2019-05-15T21:34:37.346Z,36.79
2019-05-15T21:36:54.079Z,37.12
2019-05-15T21:39:20.883Z,37.99
2019-05-15T21:41:48.889Z,38.06
2019-05-15T21:44:16.039Z,38.10
2019-05-15T21:46:42.818Z,38.04
2019-05-15T21:49:09.645Z,38.18
2019-05-15T21:51:38.389Z,38.58
2019-05-15T21:54:05.608Z,38.60
2019-05-15T21:56:32.573Z,39.12
2019-05-15T21:59:01.169Z,39.17
2019-05-15T22:01:28.927Z,39.55
2019-05-15T22:03:55.968Z,39.91
2019-05-15T22:06:23.014Z,40.48
2019-05-15T22:08:49.981Z,40.90
2019-05-15T22:11:21.802Z,41.00
2019-05-15T22:13:48.544Z,40.88
2019-05-15T22:16:18.436Z,40.84
2019-05-15T22:18:47.766Z,40.88
2019-05-15T22:21:14.765Z,41.53
2019-05-15T22:23:41.769Z,41.44
2019-05-15T22:26:09.299Z,41.64
2019-05-15T22:28:38.471Z,41.92
2019-05-15T22:31:04.992Z,42.20
2019-05-15T22:33:31.730Z,42.36
2019-05-15T22:35:59.283Z,42.24
2019-05-15T22:38:28.524Z,42.24
2019-05-15T22:40:55.384Z,42.34
2019-05-15T22:43:22.584Z,42.62
2019-05-15T22:45:49.354Z,43.04
2019-05-15T22:48:18.232Z,43.14
2019-05-15T22:50:47.712Z,42.82
2019-05-15T22:53:14.360Z,43.04
2019-05-15T22:55:41.334Z,43.33
2019-05-15T22:58:08.848Z,43.37
2019-05-15T23:00:39.097Z,43.57
2019-05-15T23:03:05.437Z,43.88
2019-05-15T23:05:32.484Z,44.01
2019-05-15T23:07:59.314Z,44.32
2019-05-15T23:10:28.920Z,44.97
2019-05-15T23:12:54.942Z,45.30
2019-05-15T23:15:22.345Z,45.20
2019-05-15T23:17:49.932Z,45.36
2019-05-15T23:20:17.787Z,45.79
2019-05-15T23:22:44.655Z,46.37
2019-05-15T23:25:12.057Z,46.75
2019-05-15T23:27:38.865Z,47.05
2019-05-15T23:30:09.040Z,47.06
2019-05-15T23:32:39.153Z,47.66
2019-05-15T23:35:05.458Z,47.72
2019-05-15T23:37:32.386Z,48.12
2019-05-15T23:39:59.121Z,48.72
2019-05-15T23:42:25.893Z,49.00
2019-05-15T23:44:52.627Z,48.76
2019-05-15T23:47:19.802Z,48.89
2019-05-15T23:49:48.495Z,49.54
2019-05-15T23:52:15.497Z,49.67
2019-05-15T23:54:42.518Z,49.32
2019-05-15T23:57:09.447Z,49.30
2019-05-15T23:59:38.288Z,49.03
